• Join FlightAware (Why Join?)
  • Login
  • US Flag 
01:07AM EDT


 

Airport Tracker/Info


-or-


 

Live Flight TrackerFlight Track Log ✈ EJA929 ✈ 17-May-2013 ✈ KTEB - KPDK

Flight Track Log - Related Links

Times and Time Zones

All times are in EDT time to prevent confusion due to time zone crossing. See the EJA929 flight status page for this flight to view local times or setup timezone preferences in your user account.

Time Position Orientation Groundspeed Altitude Reporting Facility
EDT Latitude Longitude Course Direction KTS MPH feet Rate Location/Type
09:08AM 40.8833 -74.0333 252° West 180 207 2,000  Level New York TRACON
09:09AM 40.9167 -74.0667 323° Northwest 234 269 4,300 1,500 Climbing New York TRACON
09:10AM 40.9000 -74.1667 258° West 246 283 5,000 1,320 Climbing New York TRACON
09:11AM 40.9000 -74.2500 270° West 262 302 7,000 2,280 Climbing New York TRACON
09:12AM 40.8833 -74.3500 258° West 266 306 9,600 2,400 Climbing New York TRACON
09:13AM 40.6090 -74.8305 252° West  Level FlightAware Approximate
09:13AM 40.7975 -74.4661 226° Southwest 252 290 14,000  Level New York Center
09:14AM 40.7367 -74.5450 225° Southwest 276 318 15,000 1,200 Climbing New York Center
09:15AM 40.7044 -74.6392 246° West 281 323 16,400 960 Climbing New York Center
09:16AM 40.6703 -74.7303 244° Southwest 281 323 17,000 660 Climbing New York Center
09:17AM 40.6267 -74.8453 243° Southwest 326 375 17,800 1,140 Climbing New York Center
09:18AM 40.5853 -74.9575 244° Southwest 349 402 19,400 1,860 Climbing New York Center
09:19AM 40.5308 -75.0769 239° Southwest 362 417 21,500 2,160 Climbing New York Center
09:20AM 40.4644 -75.1847 231° Southwest 369 425 23,700 1,980 Climbing New York Center
09:21AM 40.3936 -75.2919 229° Southwest 388 447 25,600 1,800 Climbing New York Center
09:22AM 40.3225 -75.4097 232° Southwest 402 463 27,400 1,740 Climbing New York Center
09:23AM 40.2469 -75.5244 229° Southwest 417 480 29,200 1,680 Climbing New York Center
09:24AM 40.1650 -75.6464 229° Southwest 436 502 30,800 2,040 Climbing New York Center
09:25AM 40.0914 -75.7608 230° Southwest 452 520 33,300 2,340 Climbing New York Center
09:26AM 40.0089 -75.8822 228° Southwest 452 520 35,600 1,320 Climbing New York Center
09:27AM 39.9264 -76.0089 230° Southwest 457 526 36,000 120 Climbing New York Center
09:29AM 39.7808 -76.2233 229° Southwest 472 543 36,000  Level Washington Center
09:30AM 39.6925 -76.3519 228° Southwest 472 543 36,000  Level Washington Center
09:31AM 39.6061 -76.4803 229° Southwest 472 543 36,000  Level Washington Center
09:32AM 39.5156 -76.6056 227° Southwest 478 550 36,000  Level Washington Center
09:33AM 39.4292 -76.7333 229° Southwest 478 550 36,000  Level Washington Center
09:34AM 39.3444 -76.8556 228° Southwest 478 550 36,000  Level Washington Center
09:35AM 39.2597 -76.9800 229° Southwest 478 550 36,000  Level Washington Center
09:36AM 39.1728 -77.1069 229° Southwest 478 550 36,000  Level Washington Center
09:37AM 39.0856 -77.2308 228° Southwest 478 550 36,000  Level Washington Center
09:38AM 38.9983 -77.3572 228° Southwest 478 550 36,000  Level Washington Center
09:39AM 38.9194 -77.4700 228° Southwest 478 550 36,000  Level Washington Center
09:40AM 38.8300 -77.5983 228° Southwest 484 557 36,000  Level Washington Center
09:41AM 38.7361 -77.7261 227° Southwest 484 557 36,000  Level Washington Center
09:42AM 38.6525 -77.8514 230° Southwest 484 557 36,000  Level Washington Center
09:43AM 38.5706 -77.9869 232° Southwest 484 557 36,000  Level Washington Center
09:44AM 38.4928 -78.1197 233° Southwest 484 557 36,000  Level Washington Center
09:45AM 38.4147 -78.2547 234° Southwest 484 557 36,000  Level Washington Center
09:46AM 38.3367 -78.3869 233° Southwest 478 550 36,000  Level Washington Center
09:47AM 38.2544 -78.5161 231° Southwest 472 543 36,000  Level Washington Center
09:48AM 38.1783 -78.6453 233° Southwest 467 537 36,000  Level Washington Center
09:49AM 38.0958 -78.7686 230° Southwest 467 537 36,000  Level Washington Center
09:50AM 38.0131 -78.8994 231° Southwest 473 544 36,000  Level Washington Center
09:51AM 37.9214 -79.0403 230° Southwest 479 551 36,000  Level Washington Center
09:52AM 37.8406 -79.1653 231° Southwest 479 551 36,000  Level Washington Center
09:53AM 37.7575 -79.2956 231° Southwest 479 551 36,000  Level Washington Center
09:54AM 37.6719 -79.4225 230° Southwest 484 557 36,000  Level Washington Center
09:55AM 37.5886 -79.5492 230° Southwest 484 557 36,000  Level Washington Center
09:56AM 37.5072 -79.6758 231° Southwest 484 557 36,000  Level Washington Center
09:57AM 37.4192 -79.8072 230° Southwest 484 557 36,000  Level Washington Center
09:59AM 37.2114 -80.1169 230° Southwest 473 544 36,000  Level Atlanta Center
10:00AM 37.1256 -80.2436 230° Southwest 473 544 36,000  Level Atlanta Center
10:01AM 37.0439 -80.3669 230° Southwest 473 544 36,000  Level Atlanta Center
10:02AM 36.9658 -80.4772 228° Southwest 473 544 36,000  Level Atlanta Center
10:03AM 36.8839 -80.6003 230° Southwest 473 544 36,000  Level Atlanta Center
10:04AM 36.7997 -80.7258 230° Southwest 473 544 36,000  Level Atlanta Center
10:05AM 36.7094 -80.8589 230° Southwest 473 544 36,000  Level Atlanta Center
10:06AM 36.6250 -80.9839 230° Southwest 468 539 36,000  Level Atlanta Center
10:07AM 36.5406 -81.1061 229° Southwest 468 539 36,000  Level Atlanta Center
10:08AM 36.4558 -81.2303 230° Southwest 468 539 36,000  Level Atlanta Center
10:09AM 36.3731 -81.3569 231° Southwest 468 539 36,000  Level Atlanta Center
10:10AM 36.2881 -81.4783 229° Southwest 468 539 36,000  Level Atlanta Center
10:11AM 36.2031 -81.5994 229° Southwest 463 533 36,000  Level Atlanta Center
10:12AM 36.1178 -81.7228 229° Southwest 463 533 36,000  Level Atlanta Center
10:13AM 36.0325 -81.8486 230° Southwest 468 539 36,000  Level Atlanta Center
10:14AM 35.9469 -81.9664 228° Southwest 468 539 36,000 -120 Level Atlanta Center
10:15AM 35.8592 -82.0914 229° Southwest 468 539 35,800 -540 Descending Atlanta Center
10:16AM 35.7839 -82.2008 230° Southwest 468 539 35,000 -420 Descending Atlanta Center
10:17AM 35.6978 -82.3178 228° Southwest 461 531 35,000  Level Atlanta Center
10:18AM 35.6078 -82.4450 229° Southwest 481 554 35,000  Level Atlanta Center
10:19AM 35.5217 -82.5664 229° Southwest 486 559 35,000  Level Atlanta Center
10:20AM 35.4250 -82.6981 228° Southwest 480 552 35,000  Level Atlanta Center
10:21AM 35.3408 -82.8142 228° Southwest 467 537 35,000 -300 Level Atlanta Center
10:22AM 35.2625 -82.9194 228° Southwest 467 537 34,400 -1,620 Descending Atlanta Center
10:23AM 35.1678 -83.0556 230° Southwest 478 550 31,800 -2,640 Descending Atlanta Center
10:24AM 35.0747 -83.1783 227° Southwest 485 558 29,200 -2,700 Descending Atlanta Center
10:25AM 34.9919 -83.2933 229° Southwest 501 577 26,400 -2,820 Descending Atlanta Center
10:26AM 34.9050 -83.4106 228° Southwest 488 562 23,600 -2,640 Descending Atlanta Center
10:27AM 34.8200 -83.5278 229° Southwest 475 547 21,200 -2,400 Descending Atlanta Center
10:28AM 34.7389 -83.6344 227° Southwest 443 510 18,800 -2,280 Descending Atlanta Center
10:29AM 34.6664 -83.7358 229° Southwest 412 474 16,700 -2,100 Descending Atlanta Center
10:30AM 34.5892 -83.8369 227° Southwest 388 447 14,700 -1,980 Descending Atlanta Center
10:31AM 34.5267 -83.9253 229° Southwest 373 429 12,800 -1,860 Descending Atlanta Center
10:32AM 34.4581 -84.0011 222° Southwest 355 409 11,000 -1,680 Descending Atlanta Center
10:33AM 34.3850 -84.0389 203° Southwest 306 352 9,500 -1,500 Descending Atlanta Center
10:34AM 34.3139 -84.0739 202° Southwest 282 325 8,100 -780 Descending Atlanta Center
10:35AM 34.2431 -84.1117 204° Southwest 272 313 8,000 -780 Descending Atlanta Center
10:36AM 34.1783 -84.1392 199° South 267 307 6,600 -1,680 Descending Atlanta Center
10:37AM 34.1114 -84.1617 196° South 260 299 4,700 -1,680 Descending Atlanta Center
10:38AM 34.0500 -84.1833 196° South 210 242 3,300 -900 Descending Atlanta TRACON
10:39AM 34.0000 -84.2000 195° South 201 231 3,000 -240 Descending Atlanta TRACON
10:40AM 33.9500 -84.2167 195° South 203 234 2,900 -300 Descending Atlanta TRACON
10:41AM 33.9000 -84.2500 209° Southwest 200 230 2,500 -240 Descending Atlanta TRACON
10:42AM 33.8500 -84.2667 195° South 161 185 2,500 -300 Level Atlanta TRACON
10:43AM 33.8333 -84.3000 239° Southwest 160 184 1,900 -600 Descending Atlanta TRACON
10:45AM 33.8667 -84.3000 209° Southwest  Level FlightAware Approximate
10:52AM 33.8756 -84.3020 209° Southwest  Level Estimated
10:53AM 33.8756 -84.3020 209° Southwest  Level Estimated